createdAt,value
2018-06-27T00:01:26.187Z,101295.72
2018-06-27T00:03:54.274Z,101292.17
2018-06-27T00:06:22.442Z,101290.98
2018-06-27T00:08:50.595Z,101290.38
2018-06-27T00:11:18.692Z,101290.38
2018-06-27T00:13:46.772Z,101274.04
2018-06-27T00:16:14.887Z,101274.27
2018-06-27T00:18:42.972Z,101283.53
2018-06-27T00:21:11.118Z,101287.80
2018-06-27T00:23:39.203Z,101286.36
2018-06-27T00:26:07.290Z,101284.35
2018-06-27T00:28:35.364Z,101282.97
2018-06-27T00:31:03.433Z,101282.83
2018-06-27T00:33:31.502Z,101282.39
2018-06-27T00:35:59.588Z,101273.52
2018-06-27T00:38:27.745Z,101279.89
2018-06-27T00:40:55.830Z,101271.85
2018-06-27T00:43:23.923Z,101273.95
2018-06-27T00:45:52.125Z,101272.14
2018-06-27T00:48:20.188Z,101272.75
2018-06-27T00:50:48.263Z,101272.75
2018-06-27T00:53:16.498Z,101270.90
2018-06-27T00:55:44.628Z,101270.30
2018-06-27T00:58:12.810Z,101277.64
2018-06-27T01:00:40.875Z,101280.06
2018-06-27T01:03:09.099Z,101278.33
2018-06-27T01:05:37.182Z,101284.17
2018-06-27T01:08:05.460Z,101278.30
2018-06-27T01:10:33.712Z,101281.75
2018-06-27T01:13:01.787Z,101278.06
2018-06-27T01:15:29.879Z,101276.48
2018-06-27T01:17:58.427Z,101276.02
2018-06-27T01:20:26.948Z,101279.03
2018-06-27T01:22:55.024Z,101284.59
2018-06-27T01:25:23.090Z,101289.12
2018-06-27T01:27:51.171Z,101282.83
2018-06-27T01:30:19.335Z,101282.67
2018-06-27T01:32:47.422Z,101277.53
2018-06-27T01:35:15.500Z,101277.73
2018-06-27T01:37:43.770Z,101282.48
2018-06-27T01:40:11.887Z,101283.69
2018-06-27T01:42:40.097Z,101279.92
2018-06-27T01:45:08.252Z,101283.38
2018-06-27T01:47:36.361Z,101279.81
2018-06-27T01:50:04.461Z,101282.73
2018-06-27T01:52:33.727Z,101284.65
2018-06-27T01:55:01.792Z,101279.94
2018-06-27T01:57:29.895Z,101282.78
2018-06-27T01:59:58.071Z,101284.45
2018-06-27T02:02:26.222Z,101285.87
2018-06-27T02:04:54.322Z,101285.52
2018-06-27T02:07:22.459Z,101285.00
2018-06-27T02:09:50.595Z,101284.08
2018-06-27T02:12:18.676Z,101284.45
2018-06-27T02:14:46.756Z,101289.48
2018-06-27T02:17:14.839Z,101285.52
2018-06-27T02:19:42.902Z,101287.09
2018-06-27T02:22:10.959Z,101290.48
2018-06-27T02:24:39.069Z,101289.09
2018-06-27T02:27:07.139Z,101294.19
2018-06-27T02:29:35.221Z,101296.73
2018-06-27T02:32:03.338Z,101296.75
2018-06-27T02:34:31.475Z,101301.63
2018-06-27T02:36:59.521Z,101296.73
2018-06-27T02:39:27.620Z,101294.27
2018-06-27T02:41:55.698Z,101295.11
2018-06-27T02:44:23.806Z,101299.70
2018-06-27T02:46:51.904Z,101298.68
2018-06-27T02:49:19.991Z,101300.17
2018-06-27T02:51:48.148Z,101302.14
2018-06-27T02:54:16.223Z,101306.44
2018-06-27T02:56:44.306Z,101305.38
2018-06-27T02:59:12.373Z,101314.33
2018-06-27T03:01:40.452Z,101311.63
2018-06-27T03:04:08.571Z,101310.64
2018-06-27T03:06:36.663Z,101311.09
2018-06-27T03:09:07.207Z,101312.38
2018-06-27T03:11:35.341Z,101311.15
2018-06-27T03:14:03.466Z,101307.61
2018-06-27T03:16:31.518Z,101313.94
2018-06-27T03:18:59.596Z,101311.45
2018-06-27T03:21:27.749Z,101308.94
2018-06-27T03:23:55.830Z,101307.54
2018-06-27T03:26:23.954Z,101304.09
2018-06-27T03:28:52.040Z,101301.67
2018-06-27T03:31:20.107Z,101302.55
2018-06-27T03:33:48.288Z,101308.17
2018-06-27T03:36:16.309Z,101304.34
2018-06-27T03:38:44.616Z,101302.20
2018-06-27T03:41:12.756Z,101303.78
2018-06-27T03:43:40.869Z,101314.60
2018-06-27T03:46:08.960Z,101306.36
2018-06-27T03:48:37.037Z,101317.06
2018-06-27T03:51:05.153Z,101314.59
2018-06-27T03:53:41.303Z,101318.42
2018-06-27T03:56:10.632Z,101324.15
2018-06-27T03:58:39.113Z,101322.59
2018-06-27T04:01:08.783Z,101325.09
2018-06-27T04:03:36.973Z,101330.63
2018-06-27T04:06:05.260Z,101327.38
2018-06-27T04:08:33.363Z,101326.52
2018-06-27T04:11:01.461Z,101332.98
2018-06-27T04:13:29.747Z,101332.25
2018-06-27T04:15:57.779Z,101331.11
2018-06-27T04:18:25.856Z,101330.56
2018-06-27T04:20:53.943Z,101330.56
2018-06-27T04:23:22.030Z,101325.89
2018-06-27T04:25:50.222Z,101325.53
2018-06-27T04:28:18.311Z,101332.72
2018-06-27T04:30:46.426Z,101336.84
2018-06-27T04:33:14.523Z,101336.94
2018-06-27T04:35:42.592Z,101338.64
2018-06-27T04:38:10.665Z,101341.61
2018-06-27T04:40:38.770Z,101339.50
2018-06-27T04:43:06.972Z,101339.91
2018-06-27T04:45:36.409Z,101343.16
2018-06-27T04:48:04.606Z,101340.62
2018-06-27T04:50:32.694Z,101343.73
2018-06-27T04:53:03.532Z,101336.97
2018-06-27T04:55:31.754Z,101344.67
2018-06-27T04:57:59.961Z,101340.88
2018-06-27T05:00:28.433Z,101338.66
2018-06-27T05:05:50.713Z,101336.85
2018-06-27T05:08:22.307Z,101335.75
2018-06-27T05:10:50.940Z,101333.56
2018-06-27T05:13:21.739Z,101339.77
2018-06-27T05:15:55.176Z,101336.46
2018-06-27T05:18:30.127Z,101337.00
2018-06-27T05:21:06.995Z,101332.86
2018-06-27T05:23:36.127Z,101338.00
2018-06-27T05:26:04.307Z,101337.07
2018-06-27T05:28:32.384Z,101337.63
2018-06-27T05:31:00.499Z,101339.71
2018-06-27T05:33:28.571Z,101336.40
2018-06-27T05:35:56.782Z,101336.58
2018-06-27T05:38:24.850Z,101339.89
2018-06-27T05:40:52.980Z,101342.59
2018-06-27T05:43:21.079Z,101339.52
2018-06-27T05:45:49.569Z,101340.95
2018-06-27T05:48:17.679Z,101343.92
2018-06-27T05:50:45.879Z,101348.95
2018-06-27T05:53:13.992Z,101350.79
2018-06-27T05:55:42.175Z,101351.16
2018-06-27T05:58:10.286Z,101345.96
2018-06-27T06:00:38.378Z,101350.76
2018-06-27T06:03:06.447Z,101342.97
2018-06-27T06:05:34.524Z,101348.61
2018-06-27T06:08:02.607Z,101351.16
2018-06-27T06:10:30.870Z,101351.76
2018-06-27T06:12:59.105Z,101356.70
2018-06-27T06:15:27.195Z,101356.23
2018-06-27T06:17:55.288Z,101357.66
2018-06-27T06:20:23.403Z,101355.73
2018-06-27T06:22:51.502Z,101355.81
2018-06-27T06:25:19.632Z,101364.57
2018-06-27T06:27:47.651Z,101358.33
2018-06-27T06:30:15.787Z,101362.55
2018-06-27T06:32:43.886Z,101363.56
2018-06-27T06:35:11.968Z,101362.80
2018-06-27T06:37:40.068Z,101360.19
2018-06-27T06:40:08.174Z,101362.63
2018-06-27T06:42:36.259Z,101358.16
2018-06-27T06:45:04.376Z,101359.91
2018-06-27T06:47:32.450Z,101358.37
2018-06-27T06:50:00.542Z,101355.61
2018-06-27T06:52:28.638Z,101351.58
2018-06-27T06:54:56.736Z,101343.24
2018-06-27T06:57:24.830Z,101332.95
2018-06-27T06:59:52.933Z,101345.56
2018-06-27T07:02:21.009Z,101349.73
2018-06-27T07:04:49.163Z,101352.46
2018-06-27T07:07:17.263Z,101342.48
2018-06-27T07:09:45.369Z,101338.18
2018-06-27T07:12:13.457Z,101340.22
2018-06-27T07:14:41.533Z,101328.37
2018-06-27T07:17:09.702Z,101338.61
2018-06-27T07:19:37.863Z,101335.05
2018-06-27T07:22:06.007Z,101332.14
2018-06-27T07:24:34.101Z,101324.90
2018-06-27T07:27:02.198Z,101330.55
2018-06-27T07:29:30.311Z,101332.41
2018-06-27T07:31:58.416Z,101339.66
2018-06-27T07:34:26.511Z,101334.94
2018-06-27T07:36:54.631Z,101337.08
2018-06-27T07:39:22.724Z,101342.37
2018-06-27T07:41:50.835Z,101335.83
2018-06-27T07:44:18.927Z,101329.30
2018-06-27T07:46:47.007Z,101328.05
2018-06-27T07:49:15.104Z,101326.76
2018-06-27T07:51:43.192Z,101338.59
2018-06-27T07:54:11.287Z,101331.73
2018-06-27T07:56:39.380Z,101335.23
2018-06-27T07:59:07.484Z,101326.95
2018-06-27T08:01:35.548Z,101331.00
2018-06-27T08:04:03.615Z,101318.66
2018-06-27T08:06:36.842Z,101315.92
2018-06-27T08:09:07.937Z,101327.93
2018-06-27T08:11:36.016Z,101312.31
2018-06-27T08:14:04.207Z,101319.97
2018-06-27T08:16:32.307Z,101318.13
2018-06-27T08:19:00.397Z,101310.03
2018-06-27T08:21:28.526Z,101314.60
2018-06-27T08:23:56.719Z,101307.60
2018-06-27T08:26:24.982Z,101307.60
2018-06-27T08:28:52.932Z,101306.60
2018-06-27T08:31:20.982Z,101312.77
2018-06-27T08:33:49.050Z,101299.27
2018-06-27T08:36:17.130Z,101301.56
2018-06-27T08:38:45.235Z,101301.08
2018-06-27T08:41:13.315Z,101301.20
2018-06-27T08:43:41.486Z,101293.69
2018-06-27T08:46:09.527Z,101296.49
2018-06-27T08:48:37.624Z,101282.33
2018-06-27T08:51:05.727Z,101292.52
2018-06-27T08:53:33.813Z,101289.95
2018-06-27T08:56:02.112Z,101282.94
2018-06-27T08:58:30.216Z,101284.87
2018-06-27T09:00:58.308Z,101281.98
2018-06-27T09:03:26.388Z,101284.22
2018-06-27T09:05:54.579Z,101289.48
2018-06-27T09:08:22.819Z,101288.75
2018-06-27T09:10:51.199Z,101279.99
2018-06-27T09:13:19.273Z,101275.98
2018-06-27T09:15:47.337Z,101277.48
2018-06-27T09:18:15.429Z,101271.33
2018-06-27T09:20:43.528Z,101275.30
2018-06-27T09:23:11.608Z,101276.69
2018-06-27T09:25:39.692Z,101271.17
2018-06-27T09:28:07.793Z,101272.48
2018-06-27T09:30:35.872Z,101268.44
2018-06-27T09:33:03.971Z,101268.48
2018-06-27T09:35:32.099Z,101271.84
2018-06-27T09:38:00.187Z,101254.69
2018-06-27T09:40:28.277Z,101257.77
2018-06-27T09:42:56.432Z,101248.20
2018-06-27T09:45:24.538Z,101250.74
2018-06-27T09:47:52.614Z,101248.86
2018-06-27T09:50:20.715Z,101242.36
2018-06-27T09:52:48.806Z,101245.37
2018-06-27T09:55:16.892Z,101239.92
2018-06-27T09:57:44.952Z,101228.22
2018-06-27T10:00:18.403Z,101224.70
2018-06-27T10:02:46.504Z,101220.09
2018-06-27T10:05:14.647Z,101221.50
2018-06-27T10:07:42.808Z,101230.85
2018-06-27T10:10:10.883Z,101230.56
2018-06-27T10:12:38.970Z,101218.19
2018-06-27T10:15:07.067Z,101219.52
2018-06-27T10:17:35.144Z,101220.86
2018-06-27T10:20:03.219Z,101220.61
2018-06-27T10:22:31.341Z,101211.85
2018-06-27T10:24:59.451Z,101210.77
2018-06-27T10:27:27.517Z,101207.77
2018-06-27T10:29:55.592Z,101203.13
2018-06-27T10:32:23.681Z,101197.11
2018-06-27T10:34:51.777Z,101206.67
2018-06-27T10:37:19.828Z,101201.46
2018-06-27T10:39:47.923Z,101195.78
2018-06-27T10:42:16.017Z,101203.41
2018-06-27T10:44:44.124Z,101199.58
2018-06-27T10:47:12.220Z,101200.16
2018-06-27T10:49:40.336Z,101198.22
2018-06-27T10:52:08.487Z,101200.12
2018-06-27T10:54:40.743Z,101183.13
2018-06-27T10:57:08.850Z,101191.66
2018-06-27T10:59:36.928Z,101181.81
2018-06-27T11:02:05.027Z,101176.86
2018-06-27T11:04:33.091Z,101173.81
2018-06-27T11:07:01.171Z,101185.08
2018-06-27T11:09:29.283Z,101176.31
2018-06-27T11:11:57.360Z,101170.56
2018-06-27T11:14:25.449Z,101177.17
2018-06-27T11:16:53.569Z,101187.55
2018-06-27T11:19:21.641Z,101188.39
2018-06-27T11:21:49.723Z,101168.66
2018-06-27T11:24:17.855Z,101170.59
2018-06-27T11:26:45.988Z,101168.94
2018-06-27T11:29:14.059Z,101173.05
2018-06-27T11:31:42.165Z,101160.44
2018-06-27T11:34:10.239Z,101162.09
2018-06-27T11:36:38.313Z,101160.44
2018-06-27T11:39:08.875Z,101159.88
2018-06-27T11:41:36.960Z,101152.20
2018-06-27T11:44:05.047Z,101156.03
2018-06-27T11:46:33.472Z,101163.19
2018-06-27T11:49:01.535Z,101164.27
2018-06-27T11:51:29.631Z,101168.12
2018-06-27T11:53:57.735Z,101158.52
2018-06-27T11:56:25.836Z,101157.42
2018-06-27T11:58:53.951Z,101155.77
2018-06-27T12:01:22.064Z,101158.23
2018-06-27T12:03:50.172Z,101157.42
2018-06-27T12:06:18.260Z,101149.47
2018-06-27T12:08:46.380Z,101149.21
2018-06-27T12:11:15.435Z,101146.98
2018-06-27T12:13:43.580Z,101139.88
2018-06-27T12:16:11.659Z,101147.82
2018-06-27T12:18:39.761Z,101134.91
2018-06-27T12:21:07.897Z,101141.19
2018-06-27T12:23:36.056Z,101139.53
2018-06-27T12:26:04.159Z,101123.39
2018-06-27T12:28:32.345Z,101128.56
2018-06-27T12:31:00.432Z,101127.73
2018-06-27T12:33:28.532Z,101139.24
2018-06-27T12:35:56.644Z,101128.23
2018-06-27T12:38:24.769Z,101130.14
2018-06-27T12:40:52.890Z,101130.59
2018-06-27T12:43:20.979Z,101128.67
2018-06-27T12:45:49.042Z,101119.90
2018-06-27T12:48:17.138Z,101116.87
2018-06-27T12:50:45.236Z,101113.59
2018-06-27T12:53:13.687Z,101115.39
2018-06-27T12:55:41.775Z,101102.44
2018-06-27T12:58:09.870Z,101107.67
2018-06-27T13:00:37.978Z,101118.92
2018-06-27T13:03:06.069Z,101117.91
2018-06-27T13:05:34.235Z,101110.25
2018-06-27T13:08:02.381Z,101098.97
2018-06-27T13:10:30.409Z,101109.84
2018-06-27T13:12:58.510Z,101110.14
2018-06-27T13:15:26.571Z,101114.97
2018-06-27T13:17:54.704Z,101112.50
2018-06-27T13:20:22.818Z,101099.91
2018-06-27T13:22:51.002Z,101117.42
2018-06-27T13:25:19.131Z,101102.84
2018-06-27T13:27:47.210Z,101095.11
2018-06-27T13:30:16.982Z,101096.41
2018-06-27T13:32:53.448Z,101105.53
2018-06-27T13:35:24.760Z,101100.41
2018-06-27T13:37:54.363Z,101097.32
2018-06-27T13:40:24.231Z,101099.22
2018-06-27T13:42:56.414Z,101092.30
2018-06-27T13:45:29.694Z,101092.29
2018-06-27T13:48:00.657Z,101097.31
2018-06-27T13:50:47.119Z,101088.77
2018-06-27T13:53:21.568Z,101094.39
2018-06-27T13:55:55.631Z,101086.92
2018-06-27T13:58:26.142Z,101088.31
2018-06-27T14:00:55.428Z,101098.55
2018-06-27T14:06:20.369Z,101087.61
2018-06-27T14:08:49.898Z,101080.89
2018-06-27T14:11:18.952Z,101069.09
2018-06-27T14:14:08.282Z,101084.10
2018-06-27T14:16:39.948Z,101076.34
2018-06-27T14:19:10.739Z,101086.56
2018-06-27T14:21:41.806Z,101081.95
2018-06-27T14:24:10.144Z,101076.80
2018-06-27T14:29:30.921Z,101082.27
2018-06-27T14:32:00.130Z,101070.21
2018-06-27T14:34:33.884Z,101072.61
2018-06-27T14:37:03.684Z,101076.77
2018-06-27T14:39:33.991Z,101074.06
2018-06-27T14:42:04.225Z,101071.28
2018-06-27T14:44:33.527Z,101063.06
2018-06-27T14:47:03.241Z,101066.93
2018-06-27T14:49:33.252Z,101072.42
2018-06-27T14:52:02.334Z,101059.76
2018-06-27T14:54:32.283Z,101067.52
2018-06-27T14:57:02.302Z,101062.52
2018-06-27T14:59:31.837Z,101071.52
2018-06-27T15:02:00.894Z,101061.63
2018-06-27T15:04:33.736Z,101053.63
2018-06-27T15:07:04.590Z,101057.48
2018-06-27T15:09:33.665Z,101052.22
2018-06-27T15:12:02.297Z,101050.25
2018-06-27T15:14:31.399Z,101049.55
2018-06-27T15:17:00.249Z,101045.08
2018-06-27T15:19:30.930Z,101043.16
2018-06-27T15:22:00.546Z,101034.64
2018-06-27T15:24:31.794Z,101037.42
2018-06-27T15:27:02.509Z,101031.40
2018-06-27T15:29:33.177Z,101020.21
2018-06-27T15:32:01.348Z,101024.02
2018-06-27T15:34:29.459Z,101025.84
2018-06-27T15:36:57.575Z,101027.77
2018-06-27T15:39:25.930Z,101029.73
2018-06-27T15:41:54.180Z,101030.04
2018-06-27T15:44:22.291Z,101030.52
2018-06-27T15:46:50.628Z,101023.34
2018-06-27T15:49:18.740Z,101029.11
2018-06-27T15:51:46.823Z,101027.75
2018-06-27T15:54:14.927Z,101026.08
2018-06-27T15:56:43.008Z,101017.84
2018-06-27T15:59:11.923Z,101022.25
2018-06-27T16:01:40.223Z,101013.99
2018-06-27T16:04:08.355Z,101023.30
2018-06-27T16:06:36.561Z,101026.81
2018-06-27T16:09:06.415Z,101022.98
2018-06-27T16:11:34.580Z,101009.17
2018-06-27T16:14:02.695Z,101010.53
2018-06-27T16:16:30.804Z,101010.08
2018-06-27T16:18:58.895Z,101007.28
2018-06-27T16:21:27.224Z,101015.48
2018-06-27T16:23:55.291Z,101012.05
2018-06-27T16:26:23.418Z,101006.78
2018-06-27T16:28:51.707Z,101010.08
2018-06-27T16:31:19.927Z,101012.06
2018-06-27T16:33:48.167Z,101010.88
2018-06-27T16:36:16.312Z,101009.64
2018-06-27T16:38:44.415Z,101010.20
2018-06-27T16:41:12.529Z,101012.84
2018-06-27T16:43:40.629Z,101016.86
2018-06-27T16:46:08.725Z,101009.64
2018-06-27T16:48:36.831Z,101038.45
2018-06-27T16:51:05.099Z,101037.80
2018-06-27T16:53:33.066Z,101033.03
2018-06-27T16:56:01.134Z,101040.26
2018-06-27T16:58:29.232Z,101042.23
2018-06-27T17:00:57.442Z,101037.81
2018-06-27T17:03:25.428Z,101034.98
2018-06-27T17:05:53.534Z,101035.51
2018-06-27T17:08:21.613Z,101031.72
2018-06-27T17:10:49.719Z,101024.02
2018-06-27T17:13:17.888Z,101026.52
2018-06-27T17:15:46.012Z,101029.32
2018-06-27T17:18:14.101Z,101039.59
2018-06-27T17:20:42.185Z,101038.24
2018-06-27T17:23:10.298Z,101035.06
2018-06-27T17:25:38.385Z,101040.84
2018-06-27T17:28:06.549Z,101040.23
2018-06-27T17:30:34.738Z,101040.93
2018-06-27T17:33:02.897Z,101048.61
2018-06-27T17:35:31.436Z,101042.30
2018-06-27T17:37:59.569Z,101037.74
2018-06-27T17:40:27.673Z,101046.30
2018-06-27T17:42:55.801Z,101042.92
2018-06-27T17:45:24.373Z,101046.83
2018-06-27T17:47:52.479Z,101043.30
2018-06-27T17:50:20.599Z,101049.25
2018-06-27T17:52:48.697Z,101047.45
2018-06-27T17:55:16.784Z,101046.70
2018-06-27T17:57:44.907Z,101053.83
2018-06-27T18:00:13.032Z,101057.05
2018-06-27T18:02:41.137Z,101060.41
2018-06-27T18:05:09.232Z,101052.09
2018-06-27T18:07:37.361Z,101052.36
2018-06-27T18:10:05.532Z,101049.97
2018-06-27T18:12:33.813Z,101053.56
2018-06-27T18:15:01.969Z,101059.35
2018-06-27T18:17:30.213Z,101054.50
2018-06-27T18:19:58.354Z,101056.16
2018-06-27T18:22:26.449Z,101062.48
2018-06-27T18:24:54.636Z,101055.38
2018-06-27T18:27:22.744Z,101051.56
2018-06-27T18:29:50.881Z,101057.02
2018-06-27T18:32:19.102Z,101054.31
2018-06-27T18:34:50.829Z,101058.17
2018-06-27T18:37:20.980Z,101055.48
2018-06-27T18:39:49.594Z,101056.86
2018-06-27T18:42:19.606Z,101062.34
2018-06-27T18:44:48.531Z,101057.69
2018-06-27T18:47:17.610Z,101063.16
2018-06-27T18:49:48.128Z,101065.92
2018-06-27T18:52:20.515Z,101064.83
2018-06-27T18:54:53.200Z,101064.57
2018-06-27T18:57:22.388Z,101060.74
2018-06-27T19:00:06.140Z,101063.72
2018-06-27T19:02:39.453Z,101070.84
2018-06-27T19:05:08.697Z,101072.77
2018-06-27T19:07:37.292Z,101075.77
2018-06-27T19:10:08.489Z,101070.57
2018-06-27T19:12:41.343Z,101075.75
2018-06-27T19:15:09.949Z,101074.94
2018-06-27T19:17:38.308Z,101075.48
2018-06-27T19:20:07.037Z,101083.95
2018-06-27T19:22:37.226Z,101076.56
2018-06-27T19:25:08.667Z,101079.28
2018-06-27T19:27:37.332Z,101081.17
2018-06-27T19:30:13.267Z,101082.83
2018-06-27T19:32:43.124Z,101087.14
2018-06-27T19:35:14.103Z,101081.39
2018-06-27T19:37:44.054Z,101094.20
2018-06-27T19:40:13.438Z,101102.41
2018-06-27T19:42:41.817Z,101100.19
2018-06-27T19:45:10.034Z,101100.16
2018-06-27T19:47:39.514Z,101102.88
2018-06-27T19:50:09.676Z,101103.66
2018-06-27T19:52:39.776Z,101110.19
2018-06-27T19:55:10.096Z,101115.36
2018-06-27T19:57:38.697Z,101112.04
2018-06-27T20:00:11.113Z,101121.55
2018-06-27T20:02:48.041Z,101122.61
2018-06-27T20:05:19.942Z,101129.44
2018-06-27T20:07:53.981Z,101128.05
2018-06-27T20:10:27.291Z,101128.01
2018-06-27T20:12:57.354Z,101133.97
2018-06-27T20:15:34.845Z,101135.55
2018-06-27T20:18:05.026Z,101141.26
2018-06-27T20:20:52.217Z,101141.77
2018-06-27T20:23:21.354Z,101143.86
2018-06-27T20:26:14.928Z,101143.53
2018-06-27T20:28:44.816Z,101147.06
2018-06-27T20:31:13.789Z,101147.98
2018-06-27T20:33:43.618Z,101152.67
2018-06-27T20:36:13.759Z,101153.30
2018-06-27T20:38:45.731Z,101156.37
2018-06-27T20:41:19.545Z,101159.76
2018-06-27T20:43:49.161Z,101162.98
2018-06-27T20:46:19.573Z,101162.34
2018-06-27T20:51:30.622Z,101159.35
2018-06-27T20:54:00.289Z,101164.94
2018-06-27T20:56:31.289Z,101163.99
2018-06-27T20:59:01.073Z,101170.20
2018-06-27T21:02:12.367Z,101169.31
2018-06-27T21:04:41.476Z,101170.44
2018-06-27T21:07:13.085Z,101175.38
2018-06-27T21:09:44.240Z,101175.45
2018-06-27T21:12:14.506Z,101173.98
2018-06-27T21:14:47.525Z,101182.42
2018-06-27T21:17:15.998Z,101180.80
2018-06-27T21:19:46.481Z,101182.11
2018-06-27T21:22:15.677Z,101181.42
2018-06-27T21:24:48.153Z,101189.24
2018-06-27T21:27:20.926Z,101186.53
2018-06-27T21:29:50.988Z,101189.98
2018-06-27T21:32:20.298Z,101193.75
2018-06-27T21:34:51.278Z,101199.55
2018-06-27T21:37:20.562Z,101195.41
2018-06-27T21:39:49.774Z,101196.33
2018-06-27T21:42:18.309Z,101205.86
2018-06-27T21:44:50.495Z,101202.12
2018-06-27T21:47:19.548Z,101191.16
2018-06-27T21:49:53.592Z,101198.77
2018-06-27T21:52:22.054Z,101198.18
2018-06-27T21:54:51.474Z,101211.45
2018-06-27T21:57:19.674Z,101205.48
2018-06-27T21:59:49.649Z,101203.16
2018-06-27T22:02:19.583Z,101201.60
2018-06-27T22:04:48.391Z,101199.45
2018-06-27T22:07:17.731Z,101198.04
2018-06-27T22:09:46.437Z,101207.16
2018-06-27T22:12:17.600Z,101200.53
2018-06-27T22:14:46.765Z,101211.43
2018-06-27T22:17:17.275Z,101212.98
2018-06-27T22:19:46.777Z,101212.20
2018-06-27T22:22:14.967Z,101222.28
2018-06-27T22:24:45.937Z,101221.08
2018-06-27T22:27:17.383Z,101220.43
2018-06-27T22:29:46.497Z,101221.20
2018-06-27T22:32:15.519Z,101230.89
2018-06-27T22:34:47.495Z,101217.77
2018-06-27T22:37:16.079Z,101221.09
2018-06-27T22:39:45.412Z,101215.32
2018-06-27T22:42:14.635Z,101216.23
2018-06-27T22:44:44.192Z,101217.84
2018-06-27T22:47:12.983Z,101219.13
2018-06-27T22:49:42.734Z,101213.16
2018-06-27T22:52:12.021Z,101216.81
2018-06-27T22:54:41.838Z,101221.58
2018-06-27T22:57:10.089Z,101219.78
2018-06-27T22:59:38.256Z,101218.45
2018-06-27T23:02:07.615Z,101221.72
2018-06-27T23:04:40.965Z,101206.06
2018-06-27T23:07:16.250Z,101215.11
2018-06-27T23:09:44.836Z,101210.06
2018-06-27T23:12:13.784Z,101223.98
2018-06-27T23:14:44.866Z,101218.04
2018-06-27T23:17:14.872Z,101223.47
2018-06-27T23:19:44.543Z,101217.80
2018-06-27T23:22:49.604Z,101215.95
2018-06-27T23:25:23.754Z,101213.20
2018-06-27T23:27:52.227Z,101210.92
2018-06-27T23:30:23.274Z,101211.77
2018-06-27T23:32:51.537Z,101212.48
2018-06-27T23:35:19.620Z,101211.52
2018-06-27T23:37:47.747Z,101208.76
2018-06-27T23:40:15.828Z,101205.82
2018-06-27T23:42:43.955Z,101209.86
2018-06-27T23:45:12.027Z,101203.34
2018-06-27T23:47:40.104Z,101203.70
2018-06-27T23:50:08.235Z,101201.41
2018-06-27T23:52:36.319Z,101203.88
2018-06-27T23:55:04.709Z,101208.09
2018-06-27T23:57:32.771Z,101197.77
